Bookmark and Share
Track history (hours):
 

OOCL Nagoya

Last reported at 2014-Apr-24 13:34 UTC. Time now 2014-Apr-24 13:36 UTC.
Position N 34°39' E 135°15'.

Length 260 m; draft 9.4 m.

Type: Cargo ship. MMSI: 477627900.

NotesDate/timePositionNaut miles runAvg speedWind from/ knotsBaromVisibWave heightAir tempDewpointWater temp
2014-Apr-24 13:34N 34°39' E 135°15'0 0.0
2014-Apr-24 12:22N 34°39' E 135°15'0 0.0
2014-Apr-24 11:28N 34°39' E 135°15'0 0.0
2014-Apr-24 10:28N 34°39' E 135°15'0 0.0
2014-Apr-24 09:28N 34°39' E 135°15'0 0.0
2014-Apr-24 08:34N 34°39' E 135°15'0 0.0
2014-Apr-24 07:34N 34°39' E 135°15'0 0.0
2014-Apr-24 06:34N 34°39' E 135°15'0 0.0
2014-Apr-24 05:34N 34°39' E 135°15'0 0.0
2014-Apr-24 04:28N 34°39' E 135°15'0 0.2
2014-Apr-24 03:32N 34°39' E 135°15'7 7.5
2014-Apr-24 02:33N 34°38' E 135°23'2 0.8
2014-Apr-23 23:22N 34°38' E 135°26'0 0.0
2014-Apr-23 22:16N 34°38' E 135°26'0 0.0
2014-Apr-23 21:22N 34°38' E 135°26'0 0.0
2014-Apr-23 20:28N 34°38' E 135°26'0 0.0
2014-Apr-23 19:04N 34°38' E 135°26'0 0.0
2014-Apr-23 18:28N 34°38' E 135°26'0 0.0
2014-Apr-23 17:28N 34°38' E 135°26'0 0.0
2014-Apr-23 16:28N 34°38' E 135°26'0 0.0
2014-Apr-23 14:28N 34°38' E 135°26'0 0.0
2014-Apr-23 13:28N 34°38' E 135°26'0 0.0
2014-Apr-23 12:22N 34°38' E 135°26'0 0.0
2014-Apr-23 11:22N 34°38' E 135°26'0 0.0
2014-Apr-23 10:22N 34°38' E 135°26'0 0.1
2014-Apr-23 09:33N 34°38' E 135°26'10 9.8
2014-Apr-23 08:33N 34°33' E 135°16'1717.5
2014-Apr-23 07:33N 34°20' E 135°02'1414.2
2014-Apr-23 06:33N 34°06' E 134°59'  
2014-Apr-20 19:33N 24°29' E 118°03'2 2.2
2014-Apr-20 18:31N 24°31' E 118°05'0 0.0
2014-Apr-20 17:25N 24°31' E 118°05'0 0.0
2014-Apr-20 16:31N 24°31' E 118°05'0 0.0
2014-Apr-20 15:19N 24°31' E 118°05'0 0.0
2014-Apr-20 14:31N 24°31' E 118°05'0 0.0
2014-Apr-20 13:22N 24°31' E 118°05'0 0.0
2014-Apr-20 12:19N 24°31' E 118°05'0 0.0
2014-Apr-20 11:31N 24°31' E 118°05'0 0.0
2014-Apr-20 10:31N 24°31' E 118°05'0 0.4
2014-Apr-20 09:33N 24°30' E 118°04'10812.9
2014-Apr-20 01:11N 22°59' E 117°02'1321.6
2014-Apr-20 00:33N 22°51' E 116°51'2221.3
2014-Apr-19 23:31N 22°37' E 116°32'13719.1
2014-Apr-19 16:22N 22°18' E 114°06'2 0.1
2014-Apr-18 19:04N 22°20' E 114°07'2 1.3
2014-Apr-18 17:24N 22°18' E 114°05'0 0.0
2014-Apr-18 13:24N 22°18' E 114°05'14 2.8
2014-Apr-18 08:31N 22°28' E 113°54'0 0.0
2014-Apr-18 07:31N 22°28' E 113°54'0 0.0
2014-Apr-18 06:31N 22°28' E 113°54'0 0.0
2014-Apr-18 05:32N 22°28' E 113°54'0 0.0
2014-Apr-18 04:31N 22°28' E 113°54'0 0.0
2014-Apr-18 03:31N 22°28' E 113°54'0 0.0
2014-Apr-18 02:31N 22°28' E 113°54'0 0.0
2014-Apr-18 01:31N 22°28' E 113°54'0 0.0
2014-Apr-18 00:31N 22°28' E 113°54'0 0.0
2014-Apr-17 23:31N 22°28' E 113°54'3 3.3
2014-Apr-17 22:33N 22°24' E 113°54'21 8.8
2014-Apr-17 20:07N 22°11' E 114°12'52513.8
2014-Apr-16 06:00N 13°48' E 111°36'11118.4 030 / 101006.010.8 1.036.023.0
2014-Apr-16 00:00N 12°18' E 110°30'   1009.010.8 0.528.020.0

Dump ship's entire track history

sailing weather and tide predictions

OOCL Nagoya — VRFX8 — position and weather